sensor_id;sensor_type;location;lat;lon;timestamp;temperature;humidity
33903;DHT22;20194;50.950;5.346;2023-01-13T00:00:58;10.70;56.00
33903;DHT22;20194;50.950;5.346;2023-01-13T00:03:24;10.70;57.20
33903;DHT22;20194;50.950;5.346;2023-01-13T00:05:50;10.70;56.80
33903;DHT22;20194;50.950;5.346;2023-01-13T00:08:16;10.70;57.70
33903;DHT22;20194;50.950;5.346;2023-01-13T00:10:46;10.70;52.80
33903;DHT22;20194;50.950;5.346;2023-01-13T00:13:12;10.70;53.90
33903;DHT22;20194;50.950;5.346;2023-01-13T00:15:38;10.70;52.60
33903;DHT22;20194;50.950;5.346;2023-01-13T00:18:04;10.70;51.10
33903;DHT22;20194;50.950;5.346;2023-01-13T00:20:30;10.60;48.60
33903;DHT22;20194;50.950;5.346;2023-01-13T00:22:55;10.70;46.30
33903;DHT22;20194;50.950;5.346;2023-01-13T00:25:23;10.60;45.80
33903;DHT22;20194;50.950;5.346;2023-01-13T00:27:49;10.60;45.10
33903;DHT22;20194;50.950;5.346;2023-01-13T00:30:15;10.60;44.00
33903;DHT22;20194;50.950;5.346;2023-01-13T00:32:40;10.70;43.20
33903;DHT22;20194;50.950;5.346;2023-01-13T00:35:07;10.60;41.40
33903;DHT22;20194;50.950;5.346;2023-01-13T00:37:35;10.70;42.70
33903;DHT22;20194;50.950;5.346;2023-01-13T00:40:01;10.60;43.20
33903;DHT22;20194;50.950;5.346;2023-01-13T00:42:27;10.60;41.70
33903;DHT22;20194;50.950;5.346;2023-01-13T00:45:11;10.60;43.50
33903;DHT22;20194;50.950;5.346;2023-01-13T00:47:36;10.50;44.50
33903;DHT22;20194;50.950;5.346;2023-01-13T00:50:02;10.50;44.40
33903;DHT22;20194;50.950;5.346;2023-01-13T00:52:28;10.50;45.70
33903;DHT22;20194;50.950;5.346;2023-01-13T00:54:55;10.60;45.40
33903;DHT22;20194;50.950;5.346;2023-01-13T00:57:21;10.60;44.00
33903;DHT22;20194;50.950;5.346;2023-01-13T00:59:47;10.50;43.80
33903;DHT22;20194;50.950;5.346;2023-01-13T01:02:12;10.40;45.70
33903;DHT22;20194;50.950;5.346;2023-01-13T01:04:38;10.30;43.90
33903;DHT22;20194;50.950;5.346;2023-01-13T01:07:04;10.30;43.10
33903;DHT22;20194;50.950;5.346;2023-01-13T01:09:30;10.30;43.20
33903;DHT22;20194;50.950;5.346;2023-01-13T01:11:58;10.20;40.90
33903;DHT22;20194;50.950;5.346;2023-01-13T01:14:24;10.20;42.00
33903;DHT22;20194;50.950;5.346;2023-01-13T01:16:50;10.20;39.90
33903;DHT22;20194;50.950;5.346;2023-01-13T01:19:16;10.20;39.10
33903;DHT22;20194;50.950;5.346;2023-01-13T01:21:43;10.10;35.00
33903;DHT22;20194;50.950;5.346;2023-01-13T01:24:08;10.10;35.30
33903;DHT22;20194;50.950;5.346;2023-01-13T01:26:34;10.10;34.20
33903;DHT22;20194;50.950;5.346;2023-01-13T01:29:00;10.10;33.80
33903;DHT22;20194;50.950;5.346;2023-01-13T01:31:31;10.00;33.60
33903;DHT22;20194;50.950;5.346;2023-01-13T01:33:57;10.10;33.00
33903;DHT22;20194;50.950;5.346;2023-01-13T01:36:25;10.00;32.00
33903;DHT22;20194;50.950;5.346;2023-01-13T01:38:51;9.90;31.80
33903;DHT22;20194;50.950;5.346;2023-01-13T01:41:21;9.90;33.20
33903;DHT22;20194;50.950;5.346;2023-01-13T01:44:04;9.90;33.80
33903;DHT22;20194;50.950;5.346;2023-01-13T01:51:48;9.90;32.30
33903;DHT22;20194;50.950;5.346;2023-01-13T01:54:47;10.00;31.80
33903;DHT22;20194;50.950;5.346;2023-01-13T01:57:14;9.90;27.30
33903;DHT22;20194;50.950;5.346;2023-01-13T01:59:43;9.90;28.80
33903;DHT22;20194;50.950;5.346;2023-01-13T02:02:09;9.80;28.80
33903;DHT22;20194;50.950;5.346;2023-01-13T02:04:39;9.70;26.00
33903;DHT22;20194;50.950;5.346;2023-01-13T02:07:07;9.70;26.00
33903;DHT22;20194;50.950;5.346;2023-01-13T02:09:34;9.50;25.30
33903;DHT22;20194;50.950;5.346;2023-01-13T02:12:00;9.50;27.30
33903;DHT22;20194;50.950;5.346;2023-01-13T02:14:45;9.40;29.00
33903;DHT22;20194;50.950;5.346;2023-01-13T02:30:41;9.20;32.80
33903;DHT22;20194;50.950;5.346;2023-01-13T02:33:49;9.20;32.50
33903;DHT22;20194;50.950;5.346;2023-01-13T02:36:24;9.10;34.10
33903;DHT22;20194;50.950;5.346;2023-01-13T02:38:53;9.10;34.80
33903;DHT22;20194;50.950;5.346;2023-01-13T02:41:46;9.20;35.20
33903;DHT22;20194;50.950;5.346;2023-01-13T02:44:40;9.10;36.90
33903;DHT22;20194;50.950;5.346;2023-01-13T02:47:18;9.10;36.70
33903;DHT22;20194;50.950;5.346;2023-01-13T02:50:07;9.10;36.70
33903;DHT22;20194;50.950;5.346;2023-01-13T02:52:38;9.00;37.60
33903;DHT22;20194;50.950;5.346;2023-01-13T02:55:13;9.00;37.80
33903;DHT22;20194;50.950;5.346;2023-01-13T02:57:41;9.00;39.30
33903;DHT22;20194;50.950;5.346;2023-01-13T03:00:10;9.00;38.40
33903;DHT22;20194;50.950;5.346;2023-01-13T03:02:36;9.00;38.60
33903;DHT22;20194;50.950;5.346;2023-01-13T03:05:04;9.00;38.30
33903;DHT22;20194;50.950;5.346;2023-01-13T03:13:18;9.00;39.20
33903;DHT22;20194;50.950;5.346;2023-01-13T03:18:40;8.90;40.70
33903;DHT22;20194;50.950;5.346;2023-01-13T03:24:12;8.90;40.50
33903;DHT22;20194;50.950;5.346;2023-01-13T03:27:12;8.90;39.90
33903;DHT22;20194;50.950;5.346;2023-01-13T03:29:40;9.00;39.10
33903;DHT22;20194;50.950;5.346;2023-01-13T03:34:55;9.10;39.40
33903;DHT22;20194;50.950;5.346;2023-01-13T03:37:25;9.10;37.60
33903;DHT22;20194;50.950;5.346;2023-01-13T03:40:10;9.10;39.10
33903;DHT22;20194;50.950;5.346;2023-01-13T03:42:40;9.10;38.40
33903;DHT22;20194;50.950;5.346;2023-01-13T03:45:29;9.10;39.10
33903;DHT22;20194;50.950;5.346;2023-01-13T03:47:58;9.10;38.60
33903;DHT22;20194;50.950;5.346;2023-01-13T03:50:31;9.10;37.10
33903;DHT22;20194;50.950;5.346;2023-01-13T03:53:01;9.10;37.40
33903;DHT22;20194;50.950;5.346;2023-01-13T03:55:33;9.10;38.20
33903;DHT22;20194;50.950;5.346;2023-01-13T03:58:22;9.20;37.30
33903;DHT22;20194;50.950;5.346;2023-01-13T04:00:59;9.20;36.30
33903;DHT22;20194;50.950;5.346;2023-01-13T04:03:49;9.20;34.60
33903;DHT22;20194;50.950;5.346;2023-01-13T04:06:18;9.20;36.30
33903;DHT22;20194;50.950;5.346;2023-01-13T04:08:56;9.30;35.60
33903;DHT22;20194;50.950;5.346;2023-01-13T04:11:33;9.30;35.90
33903;DHT22;20194;50.950;5.346;2023-01-13T04:14:02;9.30;34.60
33903;DHT22;20194;50.950;5.346;2023-01-13T04:16:29;9.30;38.20
33903;DHT22;20194;50.950;5.346;2023-01-13T04:18:55;9.20;36.80
33903;DHT22;20194;50.950;5.346;2023-01-13T04:21:21;9.20;35.90
33903;DHT22;20194;50.950;5.346;2023-01-13T04:23:46;9.10;36.60
33903;DHT22;20194;50.950;5.346;2023-01-13T04:26:17;9.20;36.00
33903;DHT22;20194;50.950;5.346;2023-01-13T04:28:44;9.10;35.30
33903;DHT22;20194;50.950;5.346;2023-01-13T04:31:10;9.00;37.50
33903;DHT22;20194;50.950;5.346;2023-01-13T04:33:36;9.00;36.80
33903;DHT22;20194;50.950;5.346;2023-01-13T04:36:02;9.00;37.00
33903;DHT22;20194;50.950;5.346;2023-01-13T04:38:27;9.00;37.30
33903;DHT22;20194;50.950;5.346;2023-01-13T04:40:53;9.10;36.10
33903;DHT22;20194;50.950;5.346;2023-01-13T04:43:19;9.00;35.30
33903;DHT22;20194;50.950;5.346;2023-01-13T04:45:44;9.10;36.80
33903;DHT22;20194;50.950;5.346;2023-01-13T04:48:10;9.10;37.10
33903;DHT22;20194;50.950;5.346;2023-01-13T04:50:36;9.10;34.10
33903;DHT22;20194;50.950;5.346;2023-01-13T04:53:02;9.10;33.40
33903;DHT22;20194;50.950;5.346;2023-01-13T04:55:28;9.20;32.20
33903;DHT22;20194;50.950;5.346;2023-01-13T04:57:54;9.20;31.60
33903;DHT22;20194;50.950;5.346;2023-01-13T05:00:21;9.10;31.20
33903;DHT22;20194;50.950;5.346;2023-01-13T05:02:51;9.20;29.40
33903;DHT22;20194;50.950;5.346;2023-01-13T05:05:17;9.20;29.60
33903;DHT22;20194;50.950;5.346;2023-01-13T05:07:43;9.20;29.60
33903;DHT22;20194;50.950;5.346;2023-01-13T05:10:09;9.20;28.10
33903;DHT22;20194;50.950;5.346;2023-01-13T05:12:35;9.20;28.50
33903;DHT22;20194;50.950;5.346;2023-01-13T05:15:19;9.20;28.50
33903;DHT22;20194;50.950;5.346;2023-01-13T05:18:03;9.20;28.80
33903;DHT22;20194;50.950;5.346;2023-01-13T05:20:29;9.20;28.40
33903;DHT22;20194;50.950;5.346;2023-01-13T05:22:55;9.30;27.00
33903;DHT22;20194;50.950;5.346;2023-01-13T05:25:39;9.30;26.00
33903;DHT22;20194;50.950;5.346;2023-01-13T05:28:06;9.30;27.00
33903;DHT22;20194;50.950;5.346;2023-01-13T05:30:36;9.40;27.00
33903;DHT22;20194;50.950;5.346;2023-01-13T05:33:03;9.40;26.90
33903;DHT22;20194;50.950;5.346;2023-01-13T05:35:29;9.40;29.00
33903;DHT22;20194;50.950;5.346;2023-01-13T05:37:55;9.30;29.40
33903;DHT22;20194;50.950;5.346;2023-01-13T05:40:21;9.30;32.30
33903;DHT22;20194;50.950;5.346;2023-01-13T05:43:16;9.30;34.20
33903;DHT22;20194;50.950;5.346;2023-01-13T05:48:12;9.10;36.50
33903;DHT22;20194;50.950;5.346;2023-01-13T05:50:38;9.10;35.80
33903;DHT22;20194;50.950;5.346;2023-01-13T05:53:04;9.00;34.40
33903;DHT22;20194;50.950;5.346;2023-01-13T05:55:30;9.00;33.70
33903;DHT22;20194;50.950;5.346;2023-01-13T05:57:56;9.00;34.30
33903;DHT22;20194;50.950;5.346;2023-01-13T06:00:21;9.00;32.40
33903;DHT22;20194;50.950;5.346;2023-01-13T06:02:47;8.90;30.30
33903;DHT22;20194;50.950;5.346;2023-01-13T06:05:13;8.90;30.20
33903;DHT22;20194;50.950;5.346;2023-01-13T06:07:39;8.90;30.80
33903;DHT22;20194;50.950;5.346;2023-01-13T06:10:05;8.90;31.20
33903;DHT22;20194;50.950;5.346;2023-01-13T06:12:31;8.90;29.50
33903;DHT22;20194;50.950;5.346;2023-01-13T06:14:57;8.90;29.60
33903;DHT22;20194;50.950;5.346;2023-01-13T06:17:22;8.80;29.70
33903;DHT22;20194;50.950;5.346;2023-01-13T06:19:48;8.80;29.80
33903;DHT22;20194;50.950;5.346;2023-01-13T06:22:24;8.80;30.30
33903;DHT22;20194;50.950;5.346;2023-01-13T06:24:52;8.70;31.00
33903;DHT22;20194;50.950;5.346;2023-01-13T06:27:20;8.80;30.90
33903;DHT22;20194;50.950;5.346;2023-01-13T06:29:46;8.70;32.00
33903;DHT22;20194;50.950;5.346;2023-01-13T06:32:26;8.70;31.80
33903;DHT22;20194;50.950;5.346;2023-01-13T06:34:57;8.60;33.00
33903;DHT22;20194;50.950;5.346;2023-01-13T06:37:23;8.60;32.30
33903;DHT22;20194;50.950;5.346;2023-01-13T06:39:54;8.60;32.10
33903;DHT22;20194;50.950;5.346;2023-01-13T06:42:26;8.60;31.20
33903;DHT22;20194;50.950;5.346;2023-01-13T06:45:11;8.60;32.50
33903;DHT22;20194;50.950;5.346;2023-01-13T06:47:37;8.70;31.00
33903;DHT22;20194;50.950;5.346;2023-01-13T06:50:02;8.60;30.20
33903;DHT22;20194;50.950;5.346;2023-01-13T06:52:28;8.60;31.10
33903;DHT22;20194;50.950;5.346;2023-01-13T06:54:55;8.60;30.80
33903;DHT22;20194;50.950;5.346;2023-01-13T06:57:22;8.60;31.00
33903;DHT22;20194;50.950;5.346;2023-01-13T06:59:47;8.60;30.80
33903;DHT22;20194;50.950;5.346;2023-01-13T07:02:13;8.60;32.70
33903;DHT22;20194;50.950;5.346;2023-01-13T07:04:39;8.60;32.90
33903;DHT22;20194;50.950;5.346;2023-01-13T07:07:05;8.60;34.20
33903;DHT22;20194;50.950;5.346;2023-01-13T07:09:32;8.50;36.60
33903;DHT22;20194;50.950;5.346;2023-01-13T07:11:58;8.40;39.00
33903;DHT22;20194;50.950;5.346;2023-01-13T07:14:23;8.40;40.40
33903;DHT22;20194;50.950;5.346;2023-01-13T07:17:07;8.30;41.40
33903;DHT22;20194;50.950;5.346;2023-01-13T07:19:33;8.30;42.70
33903;DHT22;20194;50.950;5.346;2023-01-13T07:21:59;8.30;42.80
33903;DHT22;20194;50.950;5.346;2023-01-13T07:24:24;8.30;42.80
33903;DHT22;20194;50.950;5.346;2023-01-13T07:26:50;8.30;44.50
33903;DHT22;20194;50.950;5.346;2023-01-13T07:29:17;8.30;44.20
33903;DHT22;20194;50.950;5.346;2023-01-13T07:31:42;8.30;44.20
33903;DHT22;20194;50.950;5.346;2023-01-13T07:34:08;8.30;43.80
33903;DHT22;20194;50.950;5.346;2023-01-13T07:36:34;8.30;44.40
33903;DHT22;20194;50.950;5.346;2023-01-13T07:39:00;8.30;44.00
33903;DHT22;20194;50.950;5.346;2023-01-13T07:41:25;8.30;44.50
33903;DHT22;20194;50.950;5.346;2023-01-13T07:44:10;8.20;45.80
33903;DHT22;20194;50.950;5.346;2023-01-13T07:46:37;8.30;45.30
33903;DHT22;20194;50.950;5.346;2023-01-13T07:49:04;8.30;45.10
33903;DHT22;20194;50.950;5.346;2023-01-13T07:51:30;8.30;45.20
33903;DHT22;20194;50.950;5.346;2023-01-13T07:53:55;8.30;44.50
33903;DHT22;20194;50.950;5.346;2023-01-13T07:56:21;8.30;44.20
33903;DHT22;20194;50.950;5.346;2023-01-13T07:58:47;8.30;44.20
33903;DHT22;20194;50.950;5.346;2023-01-13T08:01:16;8.30;44.10
33903;DHT22;20194;50.950;5.346;2023-01-13T08:03:42;8.30;44.30
33903;DHT22;20194;50.950;5.346;2023-01-13T08:06:09;8.30;44.00
33903;DHT22;20194;50.950;5.346;2023-01-13T08:08:35;8.30;43.80
33903;DHT22;20194;50.950;5.346;2023-01-13T08:11:02;8.30;43.70
33903;DHT22;20194;50.950;5.346;2023-01-13T08:13:29;8.30;44.00
33903;DHT22;20194;50.950;5.346;2023-01-13T08:16:03;8.30;43.30
33903;DHT22;20194;50.950;5.346;2023-01-13T08:18:30;8.30;43.30
33903;DHT22;20194;50.950;5.346;2023-01-13T08:21:03;8.30;44.10
33903;DHT22;20194;50.950;5.346;2023-01-13T08:23:29;8.30;44.00
33903;DHT22;20194;50.950;5.346;2023-01-13T08:25:59;8.40;43.20
33903;DHT22;20194;50.950;5.346;2023-01-13T08:28:25;8.30;44.00
33903;DHT22;20194;50.950;5.346;2023-01-13T08:30:51;8.40;43.70
33903;DHT22;20194;50.950;5.346;2023-01-13T08:33:19;8.40;43.40
33903;DHT22;20194;50.950;5.346;2023-01-13T08:35:44;8.40;42.10
33903;DHT22;20194;50.950;5.346;2023-01-13T08:38:10;8.40;42.90
33903;DHT22;20194;50.950;5.346;2023-01-13T08:40:38;8.40;41.90
33903;DHT22;20194;50.950;5.346;2023-01-13T08:43:04;8.40;42.40
33903;DHT22;20194;50.950;5.346;2023-01-13T08:45:30;8.50;41.80
33903;DHT22;20194;50.950;5.346;2023-01-13T08:47:56;8.50;41.10
33903;DHT22;20194;50.950;5.346;2023-01-13T08:50:22;8.60;40.30
33903;DHT22;20194;50.950;5.346;2023-01-13T08:52:48;8.60;40.90
33903;DHT22;20194;50.950;5.346;2023-01-13T08:55:14;8.70;40.60
33903;DHT22;20194;50.950;5.346;2023-01-13T08:57:39;8.70;41.00
33903;DHT22;20194;50.950;5.346;2023-01-13T09:00:06;8.80;39.60
33903;DHT22;20194;50.950;5.346;2023-01-13T09:02:32;8.90;37.90
33903;DHT22;20194;50.950;5.346;2023-01-13T09:04:58;8.90;37.30
33903;DHT22;20194;50.950;5.346;2023-01-13T09:07:25;8.90;37.90
33903;DHT22;20194;50.950;5.346;2023-01-13T09:09:51;8.90;36.90
33903;DHT22;20194;50.950;5.346;2023-01-13T09:12:17;9.00;37.20
33903;DHT22;20194;50.950;5.346;2023-01-13T09:15:03;9.10;35.90
33903;DHT22;20194;50.950;5.346;2023-01-13T09:17:30;9.10;35.30
33903;DHT22;20194;50.950;5.346;2023-01-13T09:19:56;9.00;35.10
33903;DHT22;20194;50.950;5.346;2023-01-13T09:22:21;9.00;35.40
33903;DHT22;20194;50.950;5.346;2023-01-13T09:24:51;8.90;36.30
33903;DHT22;20194;50.950;5.346;2023-01-13T09:27:17;9.00;35.60
33903;DHT22;20194;50.950;5.346;2023-01-13T09:29:43;9.00;34.80
33903;DHT22;20194;50.950;5.346;2023-01-13T09:32:12;9.00;32.80
33903;DHT22;20194;50.950;5.346;2023-01-13T09:34:38;9.10;32.70
33903;DHT22;20194;50.950;5.346;2023-01-13T09:37:22;9.20;28.90
33903;DHT22;20194;50.950;5.346;2023-01-13T09:39:48;9.20;29.70
33903;DHT22;20194;50.950;5.346;2023-01-13T09:45:13;9.30;28.80
33903;DHT22;20194;50.950;5.346;2023-01-13T09:53:11;9.60;26.40
33903;DHT22;20194;50.950;5.346;2023-01-13T09:55:38;9.70;22.60
33903;DHT22;20194;50.950;5.346;2023-01-13T09:58:15;9.70;24.20
33903;DHT22;20194;50.950;5.346;2023-01-13T10:03:30;9.70;25.00
33903;DHT22;20194;50.950;5.346;2023-01-13T10:08:27;9.60;21.60
33903;DHT22;20194;50.950;5.346;2023-01-13T10:10:58;9.60;23.40
33903;DHT22;20194;50.950;5.346;2023-01-13T10:13:27;9.60;22.40
33903;DHT22;20194;50.950;5.346;2023-01-13T10:29:28;9.90;14.00
33903;DHT22;20194;50.950;5.346;2023-01-13T10:31:55;9.90;14.60
33903;DHT22;20194;50.950;5.346;2023-01-13T10:34:21;10.00;16.80
33903;DHT22;20194;50.950;5.346;2023-01-13T10:37:04;10.00;13.90
33903;DHT22;20194;50.950;5.346;2023-01-13T10:39:44;10.00;11.90
33903;DHT22;20194;50.950;5.346;2023-01-13T10:42:16;9.90;13.00
33903;DHT22;20194;50.950;5.346;2023-01-13T10:44:55;9.90;14.60
33903;DHT22;20194;50.950;5.346;2023-01-13T10:50:17;9.90;13.40
33903;DHT22;20194;50.950;5.346;2023-01-13T10:53:01;9.90;14.30
33903;DHT22;20194;50.950;5.346;2023-01-13T10:55:32;9.90;13.50
33903;DHT22;20194;50.950;5.346;2023-01-13T10:58:18;9.90;14.40
33903;DHT22;20194;50.950;5.346;2023-01-13T11:00:45;9.90;14.70
33903;DHT22;20194;50.950;5.346;2023-01-13T11:03:21;9.90;15.20
33903;DHT22;20194;50.950;5.346;2023-01-13T11:05:58;9.90;14.40
33903;DHT22;20194;50.950;5.346;2023-01-13T11:08:40;9.90;15.90
33903;DHT22;20194;50.950;5.346;2023-01-13T11:13:55;9.90;16.10
33903;DHT22;20194;50.950;5.346;2023-01-13T11:16:43;10.00;17.40
33903;DHT22;20194;50.950;5.346;2023-01-13T11:19:15;10.10;15.30
33903;DHT22;20194;50.950;5.346;2023-01-13T11:24:41;10.10;14.60
33903;DHT22;20194;50.950;5.346;2023-01-13T11:32:43;9.80;32.60
33903;DHT22;20194;50.950;5.346;2023-01-13T11:35:17;9.80;34.10
33903;DHT22;20194;50.950;5.346;2023-01-13T11:37:50;9.70;37.00
33903;DHT22;20194;50.950;5.346;2023-01-13T11:42:50;9.50;40.50
33903;DHT22;20194;50.950;5.346;2023-01-13T11:45:44;9.40;44.20
33903;DHT22;20194;50.950;5.346;2023-01-13T11:48:20;9.40;47.50
33903;DHT22;20194;50.950;5.346;2023-01-13T11:50:53;9.40;46.30
33903;DHT22;20194;50.950;5.346;2023-01-13T11:56:09;9.30;48.40
33903;DHT22;20194;50.950;5.346;2023-01-13T12:06:55;9.50;48.70
33903;DHT22;20194;50.950;5.346;2023-01-13T12:09:32;9.50;45.30
33903;DHT22;20194;50.950;5.346;2023-01-13T12:23:00;9.40;48.90
33903;DHT22;20194;50.950;5.346;2023-01-13T12:25:32;9.40;49.50
33903;DHT22;20194;50.950;5.346;2023-01-13T12:28:03;9.40;48.20
33903;DHT22;20194;50.950;5.346;2023-01-13T12:30:44;9.30;48.70
33903;DHT22;20194;50.950;5.346;2023-01-13T12:33:36;9.40;49.40
33903;DHT22;20194;50.950;5.346;2023-01-13T12:38:47;9.40;51.90
33903;DHT22;20194;50.950;5.346;2023-01-13T12:41:34;9.30;53.70
33903;DHT22;20194;50.950;5.346;2023-01-13T12:44:03;9.30;53.50
33903;DHT22;20194;50.950;5.346;2023-01-13T12:46:50;9.30;52.60
33903;DHT22;20194;50.950;5.346;2023-01-13T12:49:29;9.30;51.90
33903;DHT22;20194;50.950;5.346;2023-01-13T12:57:20;9.20;54.30
33903;DHT22;20194;50.950;5.346;2023-01-13T13:02:29;9.30;52.50
33903;DHT22;20194;50.950;5.346;2023-01-13T13:04:57;9.40;50.80
33903;DHT22;20194;50.950;5.346;2023-01-13T13:07:36;9.40;50.70
33903;DHT22;20194;50.950;5.346;2023-01-13T13:10:22;9.40;50.40
33903;DHT22;20194;50.950;5.346;2023-01-13T13:13:00;9.40;49.70
33903;DHT22;20194;50.950;5.346;2023-01-13T13:15:46;9.50;49.30
33903;DHT22;20194;50.950;5.346;2023-01-13T13:21:00;9.60;49.80
33903;DHT22;20194;50.950;5.346;2023-01-13T13:26:17;9.60;50.80
33903;DHT22;20194;50.950;5.346;2023-01-13T13:31:29;9.50;53.00
33903;DHT22;20194;50.950;5.346;2023-01-13T13:34:25;9.50;54.60
33903;DHT22;20194;50.950;5.346;2023-01-13T13:37:20;9.40;57.00
33903;DHT22;20194;50.950;5.346;2023-01-13T13:39:52;9.30;60.00
33903;DHT22;20194;50.950;5.346;2023-01-13T13:42:42;9.30;59.80
33903;DHT22;20194;50.950;5.346;2023-01-13T13:45:28;9.30;62.10
33903;DHT22;20194;50.950;5.346;2023-01-13T13:48:23;9.30;61.60
33903;DHT22;20194;50.950;5.346;2023-01-13T13:50:53;9.40;60.90
33903;DHT22;20194;50.950;5.346;2023-01-13T13:53:30;9.40;59.80
33903;DHT22;20194;50.950;5.346;2023-01-13T13:55:58;9.50;58.90
33903;DHT22;20194;50.950;5.346;2023-01-13T13:58:26;9.50;58.00
33903;DHT22;20194;50.950;5.346;2023-01-13T14:00:53;9.50;53.30
33903;DHT22;20194;50.950;5.346;2023-01-13T14:03:27;9.50;54.50
33903;DHT22;20194;50.950;5.346;2023-01-13T14:06:01;9.50;51.50
33903;DHT22;20194;50.950;5.346;2023-01-13T14:08:32;9.60;51.20
33903;DHT22;20194;50.950;5.346;2023-01-13T14:10:58;9.50;50.20
33903;DHT22;20194;50.950;5.346;2023-01-13T14:13:27;9.50;50.70
33903;DHT22;20194;50.950;5.346;2023-01-13T14:16:04;9.60;53.20
33903;DHT22;20194;50.950;5.346;2023-01-13T14:18:32;9.50;52.20
33903;DHT22;20194;50.950;5.346;2023-01-13T14:20:59;9.50;52.80
33903;DHT22;20194;50.950;5.346;2023-01-13T14:23:32;9.50;52.40
33903;DHT22;20194;50.950;5.346;2023-01-13T14:26:07;9.50;51.10
33903;DHT22;20194;50.950;5.346;2023-01-13T14:28:37;9.40;50.80
33903;DHT22;20194;50.950;5.346;2023-01-13T14:31:05;9.40;50.50
33903;DHT22;20194;50.950;5.346;2023-01-13T14:33:38;9.40;51.20
33903;DHT22;20194;50.950;5.346;2023-01-13T14:38:40;9.40;51.60
33903;DHT22;20194;50.950;5.346;2023-01-13T14:41:17;9.40;53.70
33903;DHT22;20194;50.950;5.346;2023-01-13T14:43:44;9.40;53.70
33903;DHT22;20194;50.950;5.346;2023-01-13T14:46:11;9.50;53.10
33903;DHT22;20194;50.950;5.346;2023-01-13T14:48:37;9.50;51.10
33903;DHT22;20194;50.950;5.346;2023-01-13T14:51:08;9.50;51.30
33903;DHT22;20194;50.950;5.346;2023-01-13T14:53:47;9.50;50.10
33903;DHT22;20194;50.950;5.346;2023-01-13T14:56:50;9.60;47.80
33903;DHT22;20194;50.950;5.346;2023-01-13T14:59:39;9.50;45.30
33903;DHT22;20194;50.950;5.346;2023-01-13T15:04:50;9.50;42.60
33903;DHT22;20194;50.950;5.346;2023-01-13T15:07:27;9.50;42.10
33903;DHT22;20194;50.950;5.346;2023-01-13T15:09:56;9.50;34.90
33903;DHT22;20194;50.950;5.346;2023-01-13T15:15:02;9.50;27.50
33903;DHT22;20194;50.950;5.346;2023-01-13T15:17:28;9.60;28.40
33903;DHT22;20194;50.950;5.346;2023-01-13T15:19:54;9.60;28.80
33903;DHT22;20194;50.950;5.346;2023-01-13T15:22:19;9.60;24.40
33903;DHT22;20194;50.950;5.346;2023-01-13T15:24:45;9.60;28.90
33903;DHT22;20194;50.950;5.346;2023-01-13T15:27:21;9.60;26.60
33903;DHT22;20194;50.950;5.346;2023-01-13T15:29:48;9.60;28.70
33903;DHT22;20194;50.950;5.346;2023-01-13T15:32:17;9.60;25.90
33903;DHT22;20194;50.950;5.346;2023-01-13T15:34:44;9.60;25.50
33903;DHT22;20194;50.950;5.346;2023-01-13T15:37:10;9.60;22.60
33903;DHT22;20194;50.950;5.346;2023-01-13T15:39:35;9.60;24.10
33903;DHT22;20194;50.950;5.346;2023-01-13T15:42:01;9.60;23.30
33903;DHT22;20194;50.950;5.346;2023-01-13T15:44:45;9.60;23.20
33903;DHT22;20194;50.950;5.346;2023-01-13T15:47:29;9.60;24.40
33903;DHT22;20194;50.950;5.346;2023-01-13T15:49:55;9.70;21.30
33903;DHT22;20194;50.950;5.346;2023-01-13T15:52:23;9.70;23.40
33903;DHT22;20194;50.950;5.346;2023-01-13T15:54:50;9.60;22.10
33903;DHT22;20194;50.950;5.346;2023-01-13T15:57:25;9.60;19.80
33903;DHT22;20194;50.950;5.346;2023-01-13T15:59:54;9.70;18.80
33903;DHT22;20194;50.950;5.346;2023-01-13T16:02:21;9.60;20.90
33903;DHT22;20194;50.950;5.346;2023-01-13T16:04:48;9.60;16.40
33903;DHT22;20194;50.950;5.346;2023-01-13T16:07:17;9.60;12.50
33903;DHT22;20194;50.950;5.346;2023-01-13T16:09:43;9.70;11.20
33903;DHT22;20194;50.950;5.346;2023-01-13T16:12:10;9.70;11.20
33903;DHT22;20194;50.950;5.346;2023-01-13T16:14:35;9.70;12.10
33903;DHT22;20194;50.950;5.346;2023-01-13T16:17:22;9.70;10.40
33903;DHT22;20194;50.950;5.346;2023-01-13T16:19:48;9.70;9.90
33903;DHT22;20194;50.950;5.346;2023-01-13T16:22:15;9.70;9.70
33903;DHT22;20194;50.950;5.346;2023-01-13T16:24:41;9.70;11.70
33903;DHT22;20194;50.950;5.346;2023-01-13T16:27:20;9.70;10.90
33903;DHT22;20194;50.950;5.346;2023-01-13T16:29:47;9.70;7.70
33903;DHT22;20194;50.950;5.346;2023-01-13T16:32:13;9.70;10.00
33903;DHT22;20194;50.950;5.346;2023-01-13T16:34:39;9.70;11.20
33903;DHT22;20194;50.950;5.346;2023-01-13T16:37:17;9.70;12.90
33903;DHT22;20194;50.950;5.346;2023-01-13T16:39:42;9.70;11.70
33903;DHT22;20194;50.950;5.346;2023-01-13T16:42:08;9.60;11.70
33903;DHT22;20194;50.950;5.346;2023-01-13T16:44:34;9.60;9.10
33903;DHT22;20194;50.950;5.346;2023-01-13T16:46:59;9.60;11.20
33903;DHT22;20194;50.950;5.346;2023-01-13T16:49:25;9.70;10.70
33903;DHT22;20194;50.950;5.346;2023-01-13T16:51:50;9.70;11.70
33903;DHT22;20194;50.950;5.346;2023-01-13T16:54:16;9.70;9.60
33903;DHT22;20194;50.950;5.346;2023-01-13T16:56:42;9.70;6.50
33903;DHT22;20194;50.950;5.346;2023-01-13T16:59:11;9.70;10.00
33903;DHT22;20194;50.950;5.346;2023-01-13T17:01:42;9.60;7.80
33903;DHT22;20194;50.950;5.346;2023-01-13T17:04:17;9.70;7.90
33903;DHT22;20194;50.950;5.346;2023-01-13T17:06:51;9.70;8.10
33903;DHT22;20194;50.950;5.346;2023-01-13T17:09:20;9.60;7.50
33903;DHT22;20194;50.950;5.346;2023-01-13T17:11:46;9.70;9.70
33903;DHT22;20194;50.950;5.346;2023-01-13T17:14:12;9.70;8.30
33903;DHT22;20194;50.950;5.346;2023-01-13T17:16:39;9.70;6.20
33903;DHT22;20194;50.950;5.346;2023-01-13T17:19:05;9.60;7.30
33903;DHT22;20194;50.950;5.346;2023-01-13T17:21:31;9.60;9.30
33903;DHT22;20194;50.950;5.346;2023-01-13T17:23:56;9.60;6.90
33903;DHT22;20194;50.950;5.346;2023-01-13T17:26:35;9.60;8.40
33903;DHT22;20194;50.950;5.346;2023-01-13T17:29:06;9.60;7.60
33903;DHT22;20194;50.950;5.346;2023-01-13T17:31:34;9.60;8.40
33903;DHT22;20194;50.950;5.346;2023-01-13T17:34:01;9.60;9.70
33903;DHT22;20194;50.950;5.346;2023-01-13T17:36:27;9.60;11.40
33903;DHT22;20194;50.950;5.346;2023-01-13T17:38:54;9.50;11.90
33903;DHT22;20194;50.950;5.346;2023-01-13T17:41:20;9.50;10.00
33903;DHT22;20194;50.950;5.346;2023-01-13T17:43:46;9.50;12.20
33903;DHT22;20194;50.950;5.346;2023-01-13T17:46:13;9.50;15.30
33903;DHT22;20194;50.950;5.346;2023-01-13T17:48:43;9.50;14.50
33903;DHT22;20194;50.950;5.346;2023-01-13T17:51:11;9.50;16.60
33903;DHT22;20194;50.950;5.346;2023-01-13T17:53:37;9.50;18.00
33903;DHT22;20194;50.950;5.346;2023-01-13T17:56:06;9.50;17.60
33903;DHT22;20194;50.950;5.346;2023-01-13T17:58:32;9.50;18.40
33903;DHT22;20194;50.950;5.346;2023-01-13T18:00:58;9.50;19.70
33903;DHT22;20194;50.950;5.346;2023-01-13T18:03:24;9.50;20.10
33903;DHT22;20194;50.950;5.346;2023-01-13T18:05:49;9.50;19.80
33903;DHT22;20194;50.950;5.346;2023-01-13T18:08:15;9.40;20.70
33903;DHT22;20194;50.950;5.346;2023-01-13T18:10:41;9.30;23.20
33903;DHT22;20194;50.950;5.346;2023-01-13T18:13:06;9.30;23.50